sensor_id;sensor_type;location;lat;lon;timestamp;pressure;altitude;pressure_sealevel;temperature
8362;BMP180;4218;48.326;14.304;2023-03-11T00:01:59;96507.00;;;5.20
8362;BMP180;4218;48.326;14.304;2023-03-11T00:04:25;96505.00;;;5.30
8362;BMP180;4218;48.326;14.304;2023-03-11T00:06:50;96511.00;;;5.40
8362;BMP180;4218;48.326;14.304;2023-03-11T00:09:15;96526.00;;;5.40
8362;BMP180;4218;48.326;14.304;2023-03-11T00:11:41;96515.00;;;5.50
8362;BMP180;4218;48.326;14.304;2023-03-11T00:14:06;96541.00;;;5.50
8362;BMP180;4218;48.326;14.304;2023-03-11T00:16:31;96554.00;;;5.40
8362;BMP180;4218;48.326;14.304;2023-03-11T00:18:57;96575.00;;;5.40
8362;BMP180;4218;48.326;14.304;2023-03-11T00:21:22;96590.00;;;5.40
8362;BMP180;4218;48.326;14.304;2023-03-11T00:23:47;96600.00;;;5.40
8362;BMP180;4218;48.326;14.304;2023-03-11T00:26:13;96589.00;;;5.30
8362;BMP180;4218;48.326;14.304;2023-03-11T00:28:38;96626.00;;;5.20
8362;BMP180;4218;48.326;14.304;2023-03-11T00:31:04;96660.00;;;5.10
8362;BMP180;4218;48.326;14.304;2023-03-11T00:33:30;96694.00;;;5.00
8362;BMP180;4218;48.326;14.304;2023-03-11T00:35:55;96675.00;;;4.80
8362;BMP180;4218;48.326;14.304;2023-03-11T00:38:21;96671.00;;;4.60
8362;BMP180;4218;48.326;14.304;2023-03-11T00:40:47;96672.00;;;4.60
8362;BMP180;4218;48.326;14.304;2023-03-11T00:43:13;96685.00;;;4.40
8362;BMP180;4218;48.326;14.304;2023-03-11T00:45:39;96686.00;;;4.40
8362;BMP180;4218;48.326;14.304;2023-03-11T00:48:05;96712.00;;;4.30
8362;BMP180;4218;48.326;14.304;2023-03-11T00:50:34;96700.00;;;4.30
8362;BMP180;4218;48.326;14.304;2023-03-11T00:53:02;96735.00;;;4.10
8362;BMP180;4218;48.326;14.304;2023-03-11T00:55:31;96730.00;;;4.10
8362;BMP180;4218;48.326;14.304;2023-03-11T00:58:00;96763.00;;;4.20
8362;BMP180;4218;48.326;14.304;2023-03-11T01:00:27;96753.00;;;4.10
8362;BMP180;4218;48.326;14.304;2023-03-11T01:02:54;96764.00;;;4.10
8362;BMP180;4218;48.326;14.304;2023-03-11T01:05:23;96758.00;;;4.00
8362;BMP180;4218;48.326;14.304;2023-03-11T01:07:48;96726.00;;;4.00
8362;BMP180;4218;48.326;14.304;2023-03-11T01:10:14;96763.00;;;4.00
8362;BMP180;4218;48.326;14.304;2023-03-11T01:12:40;96770.00;;;4.00
8362;BMP180;4218;48.326;14.304;2023-03-11T01:15:08;96754.00;;;3.90
8362;BMP180;4218;48.326;14.304;2023-03-11T01:17:34;96751.00;;;4.00
8362;BMP180;4218;48.326;14.304;2023-03-11T01:19:59;96768.00;;;3.80
8362;BMP180;4218;48.326;14.304;2023-03-11T01:22:24;96752.00;;;3.80
8362;BMP180;4218;48.326;14.304;2023-03-11T01:24:50;96743.00;;;3.80
8362;BMP180;4218;48.326;14.304;2023-03-11T01:27:15;96758.00;;;3.90
8362;BMP180;4218;48.326;14.304;2023-03-11T01:29:41;96766.00;;;3.80
8362;BMP180;4218;48.326;14.304;2023-03-11T01:32:06;96765.00;;;3.80
8362;BMP180;4218;48.326;14.304;2023-03-11T01:34:32;96752.00;;;3.70
8362;BMP180;4218;48.326;14.304;2023-03-11T01:37:03;96766.00;;;3.70
8362;BMP180;4218;48.326;14.304;2023-03-11T01:39:29;96748.00;;;3.60
8362;BMP180;4218;48.326;14.304;2023-03-11T01:41:54;96767.00;;;3.70
8362;BMP180;4218;48.326;14.304;2023-03-11T01:44:20;96783.00;;;3.70
8362;BMP180;4218;48.326;14.304;2023-03-11T01:49:18;96785.00;;;3.80
8362;BMP180;4218;48.326;14.304;2023-03-11T01:51:47;96781.00;;;3.60
8362;BMP180;4218;48.326;14.304;2023-03-11T01:54:17;96794.00;;;3.60
8362;BMP180;4218;48.326;14.304;2023-03-11T01:56:45;96766.00;;;3.60
8362;BMP180;4218;48.326;14.304;2023-03-11T01:59:13;96799.00;;;3.50
8362;BMP180;4218;48.326;14.304;2023-03-11T02:01:49;96795.00;;;3.50
8362;BMP180;4218;48.326;14.304;2023-03-11T02:04:16;96795.00;;;3.40
8362;BMP180;4218;48.326;14.304;2023-03-11T02:06:42;96798.00;;;3.50
8362;BMP180;4218;48.326;14.304;2023-03-11T02:09:07;96802.00;;;3.30
8362;BMP180;4218;48.326;14.304;2023-03-11T02:11:33;96797.00;;;3.30
8362;BMP180;4218;48.326;14.304;2023-03-11T02:14:02;96801.00;;;3.20
8362;BMP180;4218;48.326;14.304;2023-03-11T02:16:28;96805.00;;;3.20
8362;BMP180;4218;48.326;14.304;2023-03-11T02:18:55;96810.00;;;3.20
8362;BMP180;4218;48.326;14.304;2023-03-11T02:21:27;96811.00;;;3.10
8362;BMP180;4218;48.326;14.304;2023-03-11T02:24:16;96814.00;;;3.00
8362;BMP180;4218;48.326;14.304;2023-03-11T02:27:10;96807.00;;;3.00
8362;BMP180;4218;48.326;14.304;2023-03-11T02:29:37;96830.00;;;3.00
8362;BMP180;4218;48.326;14.304;2023-03-11T02:32:08;96796.00;;;3.00
8362;BMP180;4218;48.326;14.304;2023-03-11T02:34:36;96817.00;;;3.00
8362;BMP180;4218;48.326;14.304;2023-03-11T02:37:10;96810.00;;;2.90
8362;BMP180;4218;48.326;14.304;2023-03-11T02:39:42;96825.00;;;2.90
8362;BMP180;4218;48.326;14.304;2023-03-11T02:42:14;96822.00;;;2.90
8362;BMP180;4218;48.326;14.304;2023-03-11T02:44:43;96817.00;;;2.90
8362;BMP180;4218;48.326;14.304;2023-03-11T02:47:11;96824.00;;;2.80
8362;BMP180;4218;48.326;14.304;2023-03-11T02:49:37;96836.00;;;2.70
8362;BMP180;4218;48.326;14.304;2023-03-11T02:52:03;96843.00;;;2.70
8362;BMP180;4218;48.326;14.304;2023-03-11T02:54:29;96836.00;;;2.70
8362;BMP180;4218;48.326;14.304;2023-03-11T02:56:54;96846.00;;;2.70
8362;BMP180;4218;48.326;14.304;2023-03-11T02:59:19;96845.00;;;2.70
8362;BMP180;4218;48.326;14.304;2023-03-11T03:01:45;96843.00;;;2.70
8362;BMP180;4218;48.326;14.304;2023-03-11T03:04:10;96857.00;;;2.70
8362;BMP180;4218;48.326;14.304;2023-03-11T03:06:36;96837.00;;;2.70
8362;BMP180;4218;48.326;14.304;2023-03-11T03:09:02;96864.00;;;2.70
8362;BMP180;4218;48.326;14.304;2023-03-11T03:11:27;96858.00;;;2.70
8362;BMP180;4218;48.326;14.304;2023-03-11T03:13:53;96862.00;;;2.70
8362;BMP180;4218;48.326;14.304;2023-03-11T03:16:18;96864.00;;;2.70
8362;BMP180;4218;48.326;14.304;2023-03-11T03:18:44;96853.00;;;2.70
8362;BMP180;4218;48.326;14.304;2023-03-11T03:21:09;96871.00;;;2.70
8362;BMP180;4218;48.326;14.304;2023-03-11T03:23:34;96871.00;;;2.70
8362;BMP180;4218;48.326;14.304;2023-03-11T03:26:03;96864.00;;;2.50
8362;BMP180;4218;48.326;14.304;2023-03-11T03:28:28;96872.00;;;2.50
8362;BMP180;4218;48.326;14.304;2023-03-11T03:30:55;96870.00;;;2.50
8362;BMP180;4218;48.326;14.304;2023-03-11T03:33:20;96872.00;;;2.50
8362;BMP180;4218;48.326;14.304;2023-03-11T03:35:46;96880.00;;;2.50
8362;BMP180;4218;48.326;14.304;2023-03-11T03:38:12;96884.00;;;2.40
8362;BMP180;4218;48.326;14.304;2023-03-11T03:40:37;96882.00;;;2.50
8362;BMP180;4218;48.326;14.304;2023-03-11T03:43:03;96882.00;;;2.50
8362;BMP180;4218;48.326;14.304;2023-03-11T03:45:29;96873.00;;;2.60
8362;BMP180;4218;48.326;14.304;2023-03-11T03:47:54;96889.00;;;2.60
8362;BMP180;4218;48.326;14.304;2023-03-11T03:50:20;96893.00;;;2.60
8362;BMP180;4218;48.326;14.304;2023-03-11T03:52:46;96895.00;;;2.60
8362;BMP180;4218;48.326;14.304;2023-03-11T03:55:11;96897.00;;;2.50
8362;BMP180;4218;48.326;14.304;2023-03-11T03:57:37;96917.00;;;2.50
8362;BMP180;4218;48.326;14.304;2023-03-11T04:00:03;96915.00;;;2.50
8362;BMP180;4218;48.326;14.304;2023-03-11T04:02:30;96911.00;;;2.40
8362;BMP180;4218;48.326;14.304;2023-03-11T04:04:56;96917.00;;;2.20
8362;BMP180;4218;48.326;14.304;2023-03-11T04:07:21;96930.00;;;2.30
8362;BMP180;4218;48.326;14.304;2023-03-11T04:09:46;96937.00;;;2.40
8362;BMP180;4218;48.326;14.304;2023-03-11T04:12:13;96937.00;;;2.40
8362;BMP180;4218;48.326;14.304;2023-03-11T04:14:39;96944.00;;;2.30
8362;BMP180;4218;48.326;14.304;2023-03-11T04:17:05;96925.00;;;2.40
8362;BMP180;4218;48.326;14.304;2023-03-11T04:19:31;96947.00;;;2.40
8362;BMP180;4218;48.326;14.304;2023-03-11T04:21:57;96942.00;;;2.40
8362;BMP180;4218;48.326;14.304;2023-03-11T04:24:22;96946.00;;;2.30
8362;BMP180;4218;48.326;14.304;2023-03-11T04:26:47;96940.00;;;2.30
8362;BMP180;4218;48.326;14.304;2023-03-11T04:29:13;96959.00;;;2.20
8362;BMP180;4218;48.326;14.304;2023-03-11T04:31:38;96945.00;;;2.20
8362;BMP180;4218;48.326;14.304;2023-03-11T04:34:03;96954.00;;;2.20
8362;BMP180;4218;48.326;14.304;2023-03-11T04:36:29;96954.00;;;2.10
8362;BMP180;4218;48.326;14.304;2023-03-11T04:38:55;96969.00;;;2.10
8362;BMP180;4218;48.326;14.304;2023-03-11T04:41:22;96955.00;;;2.10
8362;BMP180;4218;48.326;14.304;2023-03-11T04:43:47;96963.00;;;2.10
8362;BMP180;4218;48.326;14.304;2023-03-11T04:46:12;96983.00;;;2.10
8362;BMP180;4218;48.326;14.304;2023-03-11T04:48:38;96973.00;;;2.10
8362;BMP180;4218;48.326;14.304;2023-03-11T04:51:03;96973.00;;;2.10
8362;BMP180;4218;48.326;14.304;2023-03-11T04:53:29;96977.00;;;1.90
8362;BMP180;4218;48.326;14.304;2023-03-11T04:55:54;96985.00;;;1.90
8362;BMP180;4218;48.326;14.304;2023-03-11T04:58:20;96979.00;;;1.90
8362;BMP180;4218;48.326;14.304;2023-03-11T05:00:45;96993.00;;;2.00
8362;BMP180;4218;48.326;14.304;2023-03-11T05:03:11;97001.00;;;1.90
8362;BMP180;4218;48.326;14.304;2023-03-11T05:05:36;97000.00;;;2.10
8362;BMP180;4218;48.326;14.304;2023-03-11T05:08:02;97007.00;;;1.90
8362;BMP180;4218;48.326;14.304;2023-03-11T05:10:28;96997.00;;;2.00
8362;BMP180;4218;48.326;14.304;2023-03-11T05:12:53;97002.00;;;1.90
8362;BMP180;4218;48.326;14.304;2023-03-11T05:15:19;96998.00;;;1.90
8362;BMP180;4218;48.326;14.304;2023-03-11T05:17:45;96989.00;;;1.90
8362;BMP180;4218;48.326;14.304;2023-03-11T05:20:10;97007.00;;;1.90
8362;BMP180;4218;48.326;14.304;2023-03-11T05:22:37;97009.00;;;1.80
8362;BMP180;4218;48.326;14.304;2023-03-11T05:25:03;97005.00;;;1.90
8362;BMP180;4218;48.326;14.304;2023-03-11T05:27:28;97004.00;;;1.90
8362;BMP180;4218;48.326;14.304;2023-03-11T05:29:54;96998.00;;;1.90
8362;BMP180;4218;48.326;14.304;2023-03-11T05:32:19;97002.00;;;1.90
8362;BMP180;4218;48.326;14.304;2023-03-11T05:34:45;97006.00;;;1.90
8362;BMP180;4218;48.326;14.304;2023-03-11T05:37:11;97009.00;;;2.00
8362;BMP180;4218;48.326;14.304;2023-03-11T05:39:37;97009.00;;;2.00
8362;BMP180;4218;48.326;14.304;2023-03-11T05:42:03;97009.00;;;2.00
8362;BMP180;4218;48.326;14.304;2023-03-11T05:44:29;97000.00;;;2.10
8362;BMP180;4218;48.326;14.304;2023-03-11T05:46:55;97016.00;;;2.20
8362;BMP180;4218;48.326;14.304;2023-03-11T05:49:21;97014.00;;;2.20
8362;BMP180;4218;48.326;14.304;2023-03-11T05:51:47;97008.00;;;2.30
8362;BMP180;4218;48.326;14.304;2023-03-11T05:54:12;97017.00;;;2.30
8362;BMP180;4218;48.326;14.304;2023-03-11T05:56:40;97008.00;;;2.30
8362;BMP180;4218;48.326;14.304;2023-03-11T05:59:06;97028.00;;;2.30
8362;BMP180;4218;48.326;14.304;2023-03-11T06:01:32;97016.00;;;2.30
8362;BMP180;4218;48.326;14.304;2023-03-11T06:03:57;97012.00;;;2.20
8362;BMP180;4218;48.326;14.304;2023-03-11T06:06:23;97016.00;;;2.30
8362;BMP180;4218;48.326;14.304;2023-03-11T06:08:49;97018.00;;;2.30
8362;BMP180;4218;48.326;14.304;2023-03-11T06:11:15;97015.00;;;2.40
8362;BMP180;4218;48.326;14.304;2023-03-11T06:13:40;97020.00;;;2.10
8362;BMP180;4218;48.326;14.304;2023-03-11T06:16:06;97022.00;;;2.10
8362;BMP180;4218;48.326;14.304;2023-03-11T06:18:32;97015.00;;;2.20
8362;BMP180;4218;48.326;14.304;2023-03-11T06:20:58;97031.00;;;2.20
8362;BMP180;4218;48.326;14.304;2023-03-11T06:23:25;97046.00;;;2.10
8362;BMP180;4218;48.326;14.304;2023-03-11T06:25:57;97044.00;;;2.10
8362;BMP180;4218;48.326;14.304;2023-03-11T06:28:24;97044.00;;;2.20
8362;BMP180;4218;48.326;14.304;2023-03-11T06:30:49;97052.00;;;2.10
8362;BMP180;4218;48.326;14.304;2023-03-11T06:33:15;97061.00;;;2.20
8362;BMP180;4218;48.326;14.304;2023-03-11T06:35:40;97065.00;;;2.10
8362;BMP180;4218;48.326;14.304;2023-03-11T06:38:06;97060.00;;;2.10
8362;BMP180;4218;48.326;14.304;2023-03-11T06:40:33;97074.00;;;2.20
8362;BMP180;4218;48.326;14.304;2023-03-11T06:42:58;97078.00;;;2.20
8362;BMP180;4218;48.326;14.304;2023-03-11T06:45:24;97093.00;;;2.20
8362;BMP180;4218;48.326;14.304;2023-03-11T06:47:49;97098.00;;;2.10
8362;BMP180;4218;48.326;14.304;2023-03-11T06:50:15;97095.00;;;2.10
8362;BMP180;4218;48.326;14.304;2023-03-11T06:52:40;97101.00;;;2.10
8362;BMP180;4218;48.326;14.304;2023-03-11T06:55:06;97087.00;;;2.20
8362;BMP180;4218;48.326;14.304;2023-03-11T06:57:32;97108.00;;;2.30
8362;BMP180;4218;48.326;14.304;2023-03-11T06:59:57;97109.00;;;2.20
8362;BMP180;4218;48.326;14.304;2023-03-11T07:02:23;97114.00;;;2.20
8362;BMP180;4218;48.326;14.304;2023-03-11T07:04:48;97124.00;;;2.30
8362;BMP180;4218;48.326;14.304;2023-03-11T07:07:14;97123.00;;;2.40
8362;BMP180;4218;48.326;14.304;2023-03-11T07:09:39;97140.00;;;2.50
8362;BMP180;4218;48.326;14.304;2023-03-11T07:12:05;97136.00;;;2.60
8362;BMP180;4218;48.326;14.304;2023-03-11T07:14:30;97132.00;;;2.60
8362;BMP180;4218;48.326;14.304;2023-03-11T07:16:56;97144.00;;;2.50
8362;BMP180;4218;48.326;14.304;2023-03-11T07:19:21;97148.00;;;2.60
8362;BMP180;4218;48.326;14.304;2023-03-11T07:21:47;97158.00;;;2.60
8362;BMP180;4218;48.326;14.304;2023-03-11T07:24:14;97166.00;;;2.60
8362;BMP180;4218;48.326;14.304;2023-03-11T07:26:40;97171.00;;;2.50
8362;BMP180;4218;48.326;14.304;2023-03-11T07:29:06;97176.00;;;2.60
8362;BMP180;4218;48.326;14.304;2023-03-11T07:31:33;97178.00;;;2.70
8362;BMP180;4218;48.326;14.304;2023-03-11T07:34:04;97187.00;;;2.70
8362;BMP180;4218;48.326;14.304;2023-03-11T07:36:30;97190.00;;;2.70
8362;BMP180;4218;48.326;14.304;2023-03-11T07:39:02;97188.00;;;2.90
8362;BMP180;4218;48.326;14.304;2023-03-11T07:41:29;97191.00;;;3.00
8362;BMP180;4218;48.326;14.304;2023-03-11T07:43:56;97200.00;;;2.90
8362;BMP180;4218;48.326;14.304;2023-03-11T07:46:23;97190.00;;;3.00
8362;BMP180;4218;48.326;14.304;2023-03-11T07:48:50;97206.00;;;3.10
8362;BMP180;4218;48.326;14.304;2023-03-11T07:51:24;97216.00;;;3.00
8362;BMP180;4218;48.326;14.304;2023-03-11T07:53:52;97215.00;;;2.90
8362;BMP180;4218;48.326;14.304;2023-03-11T07:56:19;97216.00;;;3.10
8362;BMP180;4218;48.326;14.304;2023-03-11T07:58:45;97213.00;;;3.00
8362;BMP180;4218;48.326;14.304;2023-03-11T08:01:18;97223.00;;;3.10
8362;BMP180;4218;48.326;14.304;2023-03-11T08:03:46;97217.00;;;3.20
8362;BMP180;4218;48.326;14.304;2023-03-11T08:06:18;97220.00;;;3.30
8362;BMP180;4218;48.326;14.304;2023-03-11T08:08:44;97225.00;;;3.30
8362;BMP180;4218;48.326;14.304;2023-03-11T08:11:11;97231.00;;;3.40
8362;BMP180;4218;48.326;14.304;2023-03-11T08:13:41;97240.00;;;3.50
8362;BMP180;4218;48.326;14.304;2023-03-11T08:16:08;97243.00;;;3.30
8362;BMP180;4218;48.326;14.304;2023-03-11T08:18:34;97247.00;;;3.20
8362;BMP180;4218;48.326;14.304;2023-03-11T08:21:04;97241.00;;;3.20
8362;BMP180;4218;48.326;14.304;2023-03-11T08:23:29;97236.00;;;3.40
8362;BMP180;4218;48.326;14.304;2023-03-11T08:25:55;97245.00;;;3.30
8362;BMP180;4218;48.326;14.304;2023-03-11T08:28:20;97248.00;;;3.30
8362;BMP180;4218;48.326;14.304;2023-03-11T08:30:45;97255.00;;;3.30
8362;BMP180;4218;48.326;14.304;2023-03-11T08:33:11;97260.00;;;3.30
8362;BMP180;4218;48.326;14.304;2023-03-11T08:35:36;97267.00;;;3.20
8362;BMP180;4218;48.326;14.304;2023-03-11T08:38:02;97263.00;;;3.30
8362;BMP180;4218;48.326;14.304;2023-03-11T08:40:27;97276.00;;;3.20
8362;BMP180;4218;48.326;14.304;2023-03-11T08:42:54;97274.00;;;3.30
8362;BMP180;4218;48.326;14.304;2023-03-11T08:45:20;97281.00;;;3.30
8362;BMP180;4218;48.326;14.304;2023-03-11T08:47:45;97280.00;;;3.30
8362;BMP180;4218;48.326;14.304;2023-03-11T08:50:14;97275.00;;;3.10
8362;BMP180;4218;48.326;14.304;2023-03-11T08:52:39;97288.00;;;3.20
8362;BMP180;4218;48.326;14.304;2023-03-11T08:55:05;97285.00;;;3.30
8362;BMP180;4218;48.326;14.304;2023-03-11T08:57:33;97288.00;;;3.30
8362;BMP180;4218;48.326;14.304;2023-03-11T08:59:59;97288.00;;;3.30
8362;BMP180;4218;48.326;14.304;2023-03-11T09:02:25;97288.00;;;3.30
8362;BMP180;4218;48.326;14.304;2023-03-11T09:04:50;97284.00;;;3.40
8362;BMP180;4218;48.326;14.304;2023-03-11T09:07:16;97284.00;;;3.60
8362;BMP180;4218;48.326;14.304;2023-03-11T09:09:42;97298.00;;;3.60
8362;BMP180;4218;48.326;14.304;2023-03-11T09:12:08;97303.00;;;3.90
8362;BMP180;4218;48.326;14.304;2023-03-11T09:14:34;97301.00;;;4.00
8362;BMP180;4218;48.326;14.304;2023-03-11T09:17:01;97322.00;;;3.90
8362;BMP180;4218;48.326;14.304;2023-03-11T09:19:27;97322.00;;;3.70
8362;BMP180;4218;48.326;14.304;2023-03-11T09:21:52;97314.00;;;3.70
8362;BMP180;4218;48.326;14.304;2023-03-11T09:24:18;97318.00;;;3.80
8362;BMP180;4218;48.326;14.304;2023-03-11T09:26:43;97330.00;;;3.80
8362;BMP180;4218;48.326;14.304;2023-03-11T09:29:08;97328.00;;;3.70
8362;BMP180;4218;48.326;14.304;2023-03-11T09:31:34;97331.00;;;3.70
8362;BMP180;4218;48.326;14.304;2023-03-11T09:33:59;97333.00;;;3.70
8362;BMP180;4218;48.326;14.304;2023-03-11T09:36:25;97335.00;;;3.70
8362;BMP180;4218;48.326;14.304;2023-03-11T09:38:50;97345.00;;;3.40
8362;BMP180;4218;48.326;14.304;2023-03-11T09:44:11;97339.00;;;3.40
8362;BMP180;4218;48.326;14.304;2023-03-11T09:52:15;97347.00;;;3.90
8362;BMP180;4218;48.326;14.304;2023-03-11T09:54:51;97360.00;;;3.90
8362;BMP180;4218;48.326;14.304;2023-03-11T09:57:23;97364.00;;;4.20
8362;BMP180;4218;48.326;14.304;2023-03-11T09:59:49;97351.00;;;4.20
8362;BMP180;4218;48.326;14.304;2023-03-11T10:02:18;97358.00;;;4.20
8362;BMP180;4218;48.326;14.304;2023-03-11T10:04:49;97354.00;;;4.30
8362;BMP180;4218;48.326;14.304;2023-03-11T10:07:18;97360.00;;;4.20
8362;BMP180;4218;48.326;14.304;2023-03-11T10:12:33;97364.00;;;4.10
8362;BMP180;4218;48.326;14.304;2023-03-11T10:18:04;97351.00;;;5.20
8362;BMP180;4218;48.326;14.304;2023-03-11T10:26:13;97366.00;;;5.60
8362;BMP180;4218;48.326;14.304;2023-03-11T10:28:45;97360.00;;;5.30
8362;BMP180;4218;48.326;14.304;2023-03-11T10:33:48;97363.00;;;5.10
8362;BMP180;4218;48.326;14.304;2023-03-11T10:36:23;97360.00;;;5.00
8362;BMP180;4218;48.326;14.304;2023-03-11T10:38:53;97372.00;;;5.10
8362;BMP180;4218;48.326;14.304;2023-03-11T10:41:41;97372.00;;;4.80
8362;BMP180;4218;48.326;14.304;2023-03-11T10:44:18;97378.00;;;5.00
8362;BMP180;4218;48.326;14.304;2023-03-11T10:46:45;97369.00;;;4.90
8362;BMP180;4218;48.326;14.304;2023-03-11T10:49:18;97380.00;;;4.80
8362;BMP180;4218;48.326;14.304;2023-03-11T10:51:49;97397.00;;;4.70
8362;BMP180;4218;48.326;14.304;2023-03-11T10:56:57;97392.00;;;4.30
8362;BMP180;4218;48.326;14.304;2023-03-11T10:59:24;97388.00;;;4.30
8362;BMP180;4218;48.326;14.304;2023-03-11T11:02:00;97396.00;;;4.40
8362;BMP180;4218;48.326;14.304;2023-03-11T11:04:35;97390.00;;;4.40
8362;BMP180;4218;48.326;14.304;2023-03-11T11:09:45;97399.00;;;4.60
8362;BMP180;4218;48.326;14.304;2023-03-11T11:12:14;97395.00;;;4.60
8362;BMP180;4218;48.326;14.304;2023-03-11T11:14:51;97401.00;;;4.50
8362;BMP180;4218;48.326;14.304;2023-03-11T11:19:43;97389.00;;;4.60
8362;BMP180;4218;48.326;14.304;2023-03-11T11:22:15;97393.00;;;4.40
8362;BMP180;4218;48.326;14.304;2023-03-11T11:24:46;97394.00;;;4.40
8362;BMP180;4218;48.326;14.304;2023-03-11T11:27:24;97399.00;;;4.50
8362;BMP180;4218;48.326;14.304;2023-03-11T11:30:14;97399.00;;;4.50
8362;BMP180;4218;48.326;14.304;2023-03-11T11:32:39;97403.00;;;4.50
8362;BMP180;4218;48.326;14.304;2023-03-11T11:35:13;97407.00;;;4.20
8362;BMP180;4218;48.326;14.304;2023-03-11T11:37:41;97422.00;;;4.20
8362;BMP180;4218;48.326;14.304;2023-03-11T11:42:44;97414.00;;;3.90
8362;BMP180;4218;48.326;14.304;2023-03-11T11:45:37;97412.00;;;3.90
8362;BMP180;4218;48.326;14.304;2023-03-11T11:50:45;97422.00;;;3.90
8362;BMP180;4218;48.326;14.304;2023-03-11T11:53:46;97428.00;;;3.90
8362;BMP180;4218;48.326;14.304;2023-03-11T11:56:10;97431.00;;;3.80
8362;BMP180;4218;48.326;14.304;2023-03-11T11:58:35;97430.00;;;3.80
8362;BMP180;4218;48.326;14.304;2023-03-11T12:07:02;97447.00;;;3.20
8362;BMP180;4218;48.326;14.304;2023-03-11T12:12:20;97454.00;;;3.20
8362;BMP180;4218;48.326;14.304;2023-03-11T12:17:26;97448.00;;;3.20
8362;BMP180;4218;48.326;14.304;2023-03-11T12:20:02;97446.00;;;3.30
8362;BMP180;4218;48.326;14.304;2023-03-11T12:22:58;97450.00;;;3.40
8362;BMP180;4218;48.326;14.304;2023-03-11T12:25:34;97443.00;;;3.40
8362;BMP180;4218;48.326;14.304;2023-03-11T12:30:48;97442.00;;;3.60
8362;BMP180;4218;48.326;14.304;2023-03-11T12:35:53;97440.00;;;3.60
8362;BMP180;4218;48.326;14.304;2023-03-11T12:46:01;97429.00;;;3.90
8362;BMP180;4218;48.326;14.304;2023-03-11T12:48:43;97439.00;;;4.00
8362;BMP180;4218;48.326;14.304;2023-03-11T12:53:50;97439.00;;;4.00
8362;BMP180;4218;48.326;14.304;2023-03-11T13:04:21;97447.00;;;4.20
8362;BMP180;4218;48.326;14.304;2023-03-11T13:07:24;97457.00;;;4.10
8362;BMP180;4218;48.326;14.304;2023-03-11T13:10:02;97451.00;;;3.90
8362;BMP180;4218;48.326;14.304;2023-03-11T13:12:40;97465.00;;;3.90
8362;BMP180;4218;48.326;14.304;2023-03-11T13:25:39;97467.00;;;3.90
8362;BMP180;4218;48.326;14.304;2023-03-11T13:30:45;97491.00;;;3.90
8362;BMP180;4218;48.326;14.304;2023-03-11T13:33:36;97494.00;;;4.00
8362;BMP180;4218;48.326;14.304;2023-03-11T13:41:53;97512.00;;;4.10
8362;BMP180;4218;48.326;14.304;2023-03-11T13:44:27;97502.00;;;3.80
8362;BMP180;4218;48.326;14.304;2023-03-11T13:47:17;97500.00;;;3.80
8362;BMP180;4218;48.326;14.304;2023-03-11T13:49:59;97503.00;;;3.70
8362;BMP180;4218;48.326;14.304;2023-03-11T13:52:38;97511.00;;;3.90
8362;BMP180;4218;48.326;14.304;2023-03-11T13:55:16;97515.00;;;3.90
8362;BMP180;4218;48.326;14.304;2023-03-11T13:57:52;97520.00;;;3.80
8362;BMP180;4218;48.326;14.304;2023-03-11T14:00:26;97524.00;;;3.70
8362;BMP180;4218;48.326;14.304;2023-03-11T14:03:03;97529.00;;;3.80
8362;BMP180;4218;48.326;14.304;2023-03-11T14:05:30;97523.00;;;3.70
8362;BMP180;4218;48.326;14.304;2023-03-11T14:08:24;97523.00;;;3.70
8362;BMP180;4218;48.326;14.304;2023-03-11T14:11:15;97528.00;;;3.80
8362;BMP180;4218;48.326;14.304;2023-03-11T14:13:43;97516.00;;;3.80
8362;BMP180;4218;48.326;14.304;2023-03-11T14:18:45;97517.00;;;3.90
8362;BMP180;4218;48.326;14.304;2023-03-11T14:21:21;97520.00;;;3.90
8362;BMP180;4218;48.326;14.304;2023-03-11T14:23:52;97527.00;;;3.90
8362;BMP180;4218;48.326;14.304;2023-03-11T14:26:23;97524.00;;;3.90
8362;BMP180;4218;48.326;14.304;2023-03-11T14:28:53;97526.00;;;3.90
8362;BMP180;4218;48.326;14.304;2023-03-11T14:31:22;97533.00;;;3.90
8362;BMP180;4218;48.326;14.304;2023-03-11T14:36:42;97536.00;;;3.80
8362;BMP180;4218;48.326;14.304;2023-03-11T14:39:26;97541.00;;;3.90
8362;BMP180;4218;48.326;14.304;2023-03-11T14:44:23;97533.00;;;4.10
8362;BMP180;4218;48.326;14.304;2023-03-11T14:46:55;97542.00;;;4.10
8362;BMP180;4218;48.326;14.304;2023-03-11T14:49:23;97542.00;;;4.20
8362;BMP180;4218;48.326;14.304;2023-03-11T14:52:01;97550.00;;;4.30
8362;BMP180;4218;48.326;14.304;2023-03-11T14:54:32;97545.00;;;4.20
8362;BMP180;4218;48.326;14.304;2023-03-11T14:57:47;97551.00;;;4.30
8362;BMP180;4218;48.326;14.304;2023-03-11T14:59:54;97560.00;;;4.20
8362;BMP180;4218;48.326;14.304;2023-03-11T15:02:37;97551.00;;;4.20
8362;BMP180;4218;48.326;14.304;2023-03-11T15:05:17;97554.00;;;4.10
8362;BMP180;4218;48.326;14.304;2023-03-11T15:07:47;97561.00;;;4.10
8362;BMP180;4218;48.326;14.304;2023-03-11T15:10:14;97567.00;;;4.00
8362;BMP180;4218;48.326;14.304;2023-03-11T15:12:43;97572.00;;;4.00
8362;BMP180;4218;48.326;14.304;2023-03-11T15:15:39;97568.00;;;4.10
8362;BMP180;4218;48.326;14.304;2023-03-11T15:18:19;97580.00;;;4.10
8362;BMP180;4218;48.326;14.304;2023-03-11T15:20:45;97566.00;;;4.20
8362;BMP180;4218;48.326;14.304;2023-03-11T15:23:20;97578.00;;;4.10
8362;BMP180;4218;48.326;14.304;2023-03-11T15:25:48;97571.00;;;4.10
8362;BMP180;4218;48.326;14.304;2023-03-11T15:28:27;97586.00;;;4.10
8362;BMP180;4218;48.326;14.304;2023-03-11T15:33:46;97591.00;;;4.20
8362;BMP180;4218;48.326;14.304;2023-03-11T15:36:31;97601.00;;;4.10
8362;BMP180;4218;48.326;14.304;2023-03-11T15:39:13;97609.00;;;4.10
8362;BMP180;4218;48.326;14.304;2023-03-11T15:41:55;97600.00;;;4.00
8362;BMP180;4218;48.326;14.304;2023-03-11T15:44:25;97612.00;;;3.90
8362;BMP180;4218;48.326;14.304;2023-03-11T15:46:52;97615.00;;;3.90
8362;BMP180;4218;48.326;14.304;2023-03-11T15:49:18;97631.00;;;3.80
8362;BMP180;4218;48.326;14.304;2023-03-11T15:51:43;97626.00;;;3.80
8362;BMP180;4218;48.326;14.304;2023-03-11T15:54:08;97633.00;;;3.70
8362;BMP180;4218;48.326;14.304;2023-03-11T15:56:34;97633.00;;;3.50
8362;BMP180;4218;48.326;14.304;2023-03-11T15:59:00;97638.00;;;3.50
8362;BMP180;4218;48.326;14.304;2023-03-11T16:01:27;97642.00;;;3.60
8362;BMP180;4218;48.326;14.304;2023-03-11T16:03:56;97651.00;;;3.60
8362;BMP180;4218;48.326;14.304;2023-03-11T16:06:21;97644.00;;;3.50
8362;BMP180;4218;48.326;14.304;2023-03-11T16:08:47;97651.00;;;3.60
8362;BMP180;4218;48.326;14.304;2023-03-11T16:11:13;97663.00;;;3.50
8362;BMP180;4218;48.326;14.304;2023-03-11T16:13:39;97662.00;;;3.40
8362;BMP180;4218;48.326;14.304;2023-03-11T16:16:04;97671.00;;;3.40
8362;BMP180;4218;48.326;14.304;2023-03-11T16:18:30;97672.00;;;3.40
8362;BMP180;4218;48.326;14.304;2023-03-11T16:20:56;97670.00;;;3.40
8362;BMP180;4218;48.326;14.304;2023-03-11T16:23:26;97667.00;;;3.30
8362;BMP180;4218;48.326;14.304;2023-03-11T16:25:58;97676.00;;;3.30